Strother, Missouri
Current Conditions -  °F | °C
As of 6:55 PM on Friday 19 Dec 2014 (Local Time) from KHAE Reporting Station
Overcast Overcast  
Wind Chill: 34°   Ceiling: 5000
Heat Index: 34°   Visibility: 10mi
Dew Point: 27°   Wind: 3mph
Humidity: 75%   Direction: 110°ESE
Pressure: 30.26"   Gusts: NA
Location:  39.5207°N, 92.0162°W
Report Text: KHAE 200055Z AUTO 11003KT 10SM OVC050 01/M03 A3026 RMK AO2
Loading
Personal Weather Stations






























Interactive Weather Map New forecast layout! Learn more

10-Day Weather Forecast

Advertisements
Track Severe Weather on mobile